createdAt,value
2023-02-20T00:11:13.496Z,24.87
2023-02-20T00:37:13.569Z,24.82
2023-02-20T00:38:13.615Z,24.84
2023-02-20T00:39:13.639Z,24.82
2023-02-20T00:40:13.694Z,24.81
2023-02-20T00:41:13.716Z,24.84
2023-02-20T00:42:13.744Z,24.82
2023-02-20T00:43:13.814Z,24.84
2023-02-20T00:44:13.819Z,24.82
2023-02-20T00:45:13.831Z,24.84
2023-02-20T00:46:14.368Z,24.84
2023-02-20T00:47:13.842Z,24.79
2023-02-20T00:48:13.862Z,24.84
2023-02-20T00:49:13.781Z,24.82
2023-02-20T00:50:13.728Z,24.81
2023-02-20T00:51:13.698Z,24.82
2023-02-20T00:52:14.962Z,24.81
2023-02-20T00:53:13.671Z,24.79
2023-02-20T00:54:13.706Z,24.81
2023-02-20T00:55:13.591Z,24.82
2023-02-20T00:56:13.847Z,24.82
2023-02-20T00:57:13.523Z,24.78
2023-02-20T00:58:13.472Z,24.81
2023-02-20T00:59:13.474Z,24.82
2023-02-20T01:00:13.438Z,24.81
2023-02-20T01:01:13.406Z,24.79
2023-02-20T01:02:13.340Z,24.79
2023-02-20T01:03:13.319Z,24.79
2023-02-20T01:04:13.293Z,24.78
2023-02-20T01:05:13.252Z,24.79
2023-02-20T01:06:13.479Z,24.79
2023-02-20T01:07:13.145Z,24.77
2023-02-20T01:08:13.875Z,24.78
2023-02-20T01:09:13.079Z,24.77
2023-02-20T01:10:13.044Z,24.79
2023-02-20T01:11:13.013Z,24.77
2023-02-20T01:12:13.917Z,24.77
2023-02-20T01:13:12.913Z,24.77
2023-02-20T01:14:12.903Z,24.77
2023-02-20T01:15:12.871Z,24.77
2023-02-20T01:16:13.131Z,24.77
2023-02-20T01:17:12.823Z,24.77
2023-02-20T01:18:12.779Z,24.77
2023-02-20T01:19:12.749Z,24.78
2023-02-20T01:20:12.737Z,24.77
2023-02-20T01:21:12.682Z,24.79
2023-02-20T01:22:12.651Z,24.78
2023-02-20T01:23:12.612Z,24.77
2023-02-20T01:24:12.612Z,24.78
2023-02-20T01:25:12.592Z,24.77
2023-02-20T01:27:12.484Z,24.78
2023-02-20T01:28:12.461Z,24.75
2023-02-20T01:29:12.431Z,24.77
2023-02-20T01:30:12.608Z,24.75
2023-02-20T01:31:12.474Z,24.74
2023-02-20T01:32:12.378Z,24.75
2023-02-20T01:33:12.339Z,24.77
2023-02-20T01:34:12.310Z,24.75
2023-02-20T01:35:12.272Z,24.77
2023-02-20T01:36:12.523Z,24.77
2023-02-20T01:37:12.209Z,24.77
2023-02-20T01:38:12.191Z,24.74
2023-02-20T01:39:12.148Z,24.72
2023-02-20T01:40:12.114Z,24.72
2023-02-20T01:41:12.088Z,24.74
2023-02-20T01:42:12.056Z,24.75
2023-02-20T01:43:12.033Z,24.72
2023-02-20T01:44:12.006Z,24.72
2023-02-20T01:45:11.998Z,24.72
2023-02-20T01:46:12.240Z,24.72
2023-02-20T01:47:11.934Z,24.72
2023-02-20T01:48:11.902Z,24.72
2023-02-20T01:49:11.894Z,24.74
2023-02-20T01:50:11.848Z,24.75
2023-02-20T01:51:11.826Z,24.75
2023-02-20T01:52:11.786Z,24.74
2023-02-20T01:53:11.764Z,24.74
2023-02-20T01:54:11.778Z,24.72
2023-02-20T01:55:11.737Z,24.72
2023-02-20T01:56:11.989Z,24.74
2023-02-20T01:57:11.672Z,24.72
2023-02-20T01:58:11.648Z,24.71
2023-02-20T01:59:12.406Z,24.72
2023-02-20T02:00:11.596Z,24.72
2023-02-20T02:01:11.593Z,24.71
2023-02-20T02:02:11.599Z,24.74
2023-02-20T02:03:11.532Z,24.70
2023-02-20T02:04:11.485Z,24.71
2023-02-20T02:05:11.456Z,24.71
2023-02-20T02:06:11.703Z,24.71
2023-02-20T02:07:11.416Z,24.68
2023-02-20T02:08:11.360Z,24.71
2023-02-20T02:09:11.382Z,24.72
2023-02-20T02:10:11.321Z,24.72
2023-02-20T02:11:11.291Z,24.72
2023-02-20T02:12:11.260Z,24.70
2023-02-20T02:13:11.250Z,24.70
2023-02-20T04:32:07.110Z,24.51
2023-02-20T04:33:07.021Z,24.53
2023-02-20T04:34:06.987Z,24.53
2023-02-20T04:35:06.956Z,24.54
2023-02-20T04:36:06.925Z,24.51
2023-02-20T04:37:06.901Z,24.54
2023-02-20T04:38:06.851Z,24.53
2023-02-20T04:39:06.839Z,24.53
2023-02-20T04:40:06.781Z,24.51
2023-02-20T04:41:06.765Z,24.51
2023-02-20T04:42:07.450Z,24.51
2023-02-20T04:43:06.701Z,24.53
2023-02-20T04:44:06.636Z,24.51
2023-02-20T04:45:06.619Z,24.51
2023-02-20T04:46:06.695Z,24.51
2023-02-20T04:47:07.439Z,24.51
2023-02-20T04:48:06.532Z,24.51
2023-02-20T04:49:06.504Z,24.51
2023-02-20T04:50:06.534Z,24.53
2023-02-20T04:51:06.447Z,24.51
2023-02-20T04:52:06.408Z,24.53
2023-02-20T04:53:06.421Z,24.50
2023-02-20T04:54:06.358Z,24.50
2023-02-20T04:55:06.339Z,24.50
2023-02-20T04:56:06.331Z,24.50
2023-02-20T04:57:06.286Z,24.50
2023-02-20T04:58:06.275Z,24.50
2023-02-20T04:59:06.964Z,24.50
2023-02-20T05:00:06.187Z,24.53
2023-02-20T05:01:06.175Z,24.51
2023-02-20T05:02:06.109Z,24.51
2023-02-20T05:03:06.083Z,24.51
2023-02-20T05:04:06.073Z,24.50
2023-02-20T05:05:06.027Z,24.51
2023-02-20T05:06:06.001Z,24.50
2023-02-20T05:07:05.954Z,24.50
2023-02-20T05:08:05.950Z,24.49
2023-02-20T05:09:05.922Z,24.50
2023-02-20T05:10:05.878Z,24.51
2023-02-20T05:11:05.867Z,24.49
2023-02-20T05:12:05.818Z,24.50
2023-02-20T05:13:05.767Z,24.50
2023-02-20T05:14:05.735Z,24.50
2023-02-20T05:15:05.735Z,24.49
2023-02-20T05:16:05.744Z,24.50
2023-02-20T05:17:05.708Z,24.50
2023-02-20T05:18:05.631Z,24.47
2023-02-20T05:19:05.609Z,24.50
2023-02-20T05:20:05.564Z,24.49
2023-02-20T05:21:05.538Z,24.46
2023-02-20T05:22:05.499Z,24.47
2023-02-20T05:23:05.478Z,24.47
2023-02-20T05:24:07.407Z,24.47
2023-02-20T05:25:05.414Z,24.47
2023-02-20T05:26:05.369Z,24.47
2023-02-20T05:27:05.337Z,24.46
2023-02-20T05:28:05.314Z,24.47
2023-02-20T05:29:05.288Z,24.47
2023-02-20T05:30:05.268Z,24.46
2023-02-20T05:31:05.255Z,24.44
2023-02-20T05:32:05.219Z,24.46
2023-02-20T05:33:05.141Z,24.46
2023-02-20T05:34:05.117Z,24.50
2023-02-20T05:35:05.105Z,24.47
2023-02-20T05:36:05.051Z,24.46
2023-02-20T05:37:05.022Z,24.49
2023-02-20T05:38:05.004Z,24.47
2023-02-20T05:39:04.967Z,24.46
2023-02-20T05:40:04.911Z,24.47
2023-02-20T05:41:04.880Z,24.44
2023-02-20T05:42:04.846Z,24.49
2023-02-20T05:43:04.835Z,24.47
2023-02-20T05:44:04.798Z,24.44
2023-02-20T05:45:04.752Z,24.44
2023-02-20T05:46:04.736Z,24.47
2023-02-20T05:47:04.714Z,24.47
2023-02-20T05:48:04.653Z,24.44
2023-02-20T05:49:04.624Z,24.46
2023-02-20T05:50:04.595Z,24.46
2023-02-20T05:51:04.567Z,24.43
2023-02-20T05:52:04.535Z,24.44
2023-02-20T05:53:04.486Z,24.47
2023-02-20T05:54:04.492Z,24.46
2023-02-20T05:55:04.426Z,24.44
2023-02-20T05:56:04.397Z,24.46
2023-02-20T05:57:04.378Z,24.46
2023-02-20T05:58:04.372Z,24.44
2023-02-20T05:59:04.340Z,24.43
2023-02-20T06:00:04.330Z,24.43
2023-02-20T06:01:04.352Z,24.44
2023-02-20T06:02:04.299Z,24.43
2023-02-20T06:03:04.238Z,24.43
2023-02-20T06:04:04.333Z,24.43
2023-02-20T06:05:04.219Z,24.43
2023-02-20T06:06:04.186Z,24.43
2023-02-20T06:07:04.277Z,24.44
2023-02-20T06:08:04.138Z,24.41
2023-02-20T06:09:04.506Z,24.44
2023-02-20T06:10:04.114Z,24.46
2023-02-20T06:11:04.062Z,24.44
2023-02-20T06:12:04.018Z,24.44
2023-02-20T06:13:04.010Z,24.44
2023-02-20T06:14:04.030Z,24.44
2023-02-20T06:15:04.006Z,24.44
2023-02-20T06:16:03.942Z,24.40
2023-02-20T06:17:03.885Z,24.41
2023-02-20T06:18:03.887Z,24.41
2023-02-20T06:19:03.912Z,24.41
2023-02-20T06:20:03.830Z,24.43
2023-02-20T06:21:03.799Z,24.41
2023-02-20T06:22:03.756Z,24.41
2023-02-20T06:23:03.737Z,24.43
2023-02-20T06:24:03.701Z,24.44
2023-02-20T06:25:03.663Z,24.43
2023-02-20T06:26:03.632Z,24.43
2023-02-20T06:27:03.603Z,24.44
2023-02-20T06:28:03.641Z,24.44
2023-02-20T06:29:03.586Z,24.46
2023-02-20T06:30:03.599Z,24.44
2023-02-20T06:31:03.611Z,24.40
2023-02-20T06:32:03.625Z,24.41
2023-02-20T06:33:03.474Z,24.46
2023-02-20T06:34:03.439Z,24.43
2023-02-20T06:35:04.972Z,24.43
2023-02-20T06:36:06.016Z,24.40
2023-02-20T06:37:03.586Z,24.34
2023-02-20T06:38:03.556Z,24.33
2023-02-20T06:39:03.526Z,24.32
2023-02-20T06:40:03.483Z,24.30
2023-02-20T06:41:03.429Z,24.32
2023-02-20T06:42:03.433Z,24.33
2023-02-20T06:43:03.404Z,24.32
2023-02-20T06:44:03.372Z,24.36
2023-02-20T06:45:03.322Z,24.37
2023-02-20T06:46:03.309Z,24.40
2023-02-20T06:47:03.412Z,24.40
2023-02-20T06:48:03.391Z,24.43
2023-02-20T06:49:03.522Z,24.43
2023-02-20T06:50:03.427Z,24.50
2023-02-20T06:51:03.504Z,24.50
2023-02-20T06:52:04.380Z,24.54
2023-02-20T06:53:03.449Z,24.53
2023-02-20T06:54:03.456Z,24.49
2023-02-20T06:55:03.423Z,24.44
2023-02-20T06:56:03.378Z,24.37
2023-02-20T06:57:03.368Z,24.29
2023-02-20T06:58:03.373Z,24.22
2023-02-20T06:59:03.670Z,24.15
2023-02-20T07:00:03.619Z,24.09
2023-02-20T07:01:03.296Z,24.05
2023-02-20T07:02:06.055Z,24.03
2023-02-20T07:03:03.220Z,24.03
2023-02-20T07:04:03.988Z,24.03
2023-02-20T07:05:03.442Z,24.03
2023-02-20T07:06:03.180Z,24.08
2023-02-20T07:07:04.002Z,24.06
2023-02-20T07:08:05.351Z,24.06
2023-02-20T07:09:03.231Z,24.03
2023-02-20T07:10:04.026Z,23.99
2023-02-20T07:11:04.292Z,23.98
2023-02-20T07:12:03.023Z,23.94
2023-02-20T07:13:03.335Z,23.92
2023-02-20T07:14:03.003Z,23.92
2023-02-20T07:15:03.117Z,23.92
2023-02-20T07:16:03.012Z,23.95
2023-02-20T07:17:02.912Z,23.95
2023-02-20T07:18:02.864Z,23.96
2023-02-20T07:19:02.848Z,24.02
2023-02-20T07:20:02.862Z,24.03
2023-02-20T07:21:03.597Z,24.09
2023-02-20T07:22:02.923Z,24.13
2023-02-20T07:23:03.593Z,24.16
2023-02-20T07:24:02.837Z,24.23
2023-02-20T07:25:02.809Z,24.23
2023-02-20T07:26:02.796Z,24.27
2023-02-20T07:27:02.745Z,24.32
2023-02-20T07:28:03.079Z,24.33
2023-02-20T07:29:02.734Z,24.32
2023-02-20T07:30:02.823Z,24.32
2023-02-20T07:31:02.805Z,24.30
2023-02-20T07:33:02.799Z,24.23
2023-02-20T07:34:02.754Z,24.22
2023-02-20T07:35:06.811Z,24.24
2023-02-20T07:36:03.698Z,24.26
2023-02-20T07:37:02.666Z,24.23
2023-02-20T07:38:02.731Z,24.26
2023-02-20T07:39:02.775Z,24.30
2023-02-20T07:40:02.608Z,24.30
2023-02-20T07:41:02.544Z,24.33
2023-02-20T07:42:02.537Z,24.33
2023-02-20T07:43:02.524Z,24.37
2023-02-20T07:44:02.609Z,24.39
2023-02-20T07:45:03.029Z,24.39
2023-02-20T07:46:02.709Z,24.41
2023-02-20T07:47:02.424Z,24.47
2023-02-20T07:48:02.611Z,24.51
2023-02-20T07:49:02.383Z,24.54
2023-02-20T07:50:02.346Z,24.56
2023-02-20T07:51:02.322Z,24.61
2023-02-20T07:52:02.306Z,24.66
2023-02-20T07:53:02.253Z,24.67
2023-02-20T07:54:02.275Z,24.71
2023-02-20T07:55:03.342Z,24.71
2023-02-20T07:56:02.377Z,24.74
2023-02-20T07:57:02.333Z,24.72
2023-02-20T07:58:02.117Z,24.78
2023-02-20T07:59:02.120Z,24.78
2023-02-20T08:00:02.192Z,24.81
2023-02-20T08:01:02.145Z,24.82
2023-02-20T08:02:02.099Z,24.84
2023-02-20T08:03:02.176Z,24.84
2023-02-20T08:04:03.070Z,24.85
2023-02-20T08:05:02.065Z,24.88
2023-02-20T08:06:02.032Z,24.87
2023-02-20T08:07:01.951Z,24.89
2023-02-20T08:08:02.603Z,24.89
2023-02-20T08:09:01.892Z,24.95
2023-02-20T08:10:02.564Z,24.95
2023-02-20T08:11:08.791Z,24.96
2023-02-20T08:12:02.831Z,24.95
2023-02-20T08:13:01.764Z,24.98
2023-02-20T08:14:01.766Z,25.04
2023-02-20T08:15:20.151Z,24.99
2023-02-20T08:16:01.781Z,25.02
2023-02-20T08:17:01.693Z,25.02
2023-02-20T08:18:02.006Z,24.99
2023-02-20T08:19:01.717Z,25.02
2023-02-20T08:20:01.856Z,24.99
2023-02-20T08:21:03.707Z,25.01
2023-02-20T08:22:01.574Z,24.99
2023-02-20T08:23:01.481Z,25.04
2023-02-20T08:24:02.090Z,25.02
2023-02-20T08:25:01.433Z,25.06
2023-02-20T08:26:05.646Z,25.06
2023-02-20T08:27:01.465Z,25.09
2023-02-20T08:28:01.386Z,25.08
2023-02-20T08:29:01.400Z,25.11
2023-02-20T08:30:01.502Z,25.11
2023-02-20T08:31:02.246Z,25.09
2023-02-20T08:32:01.391Z,25.06
2023-02-20T08:33:01.207Z,25.11
2023-02-20T08:34:01.210Z,25.11
2023-02-20T08:35:01.226Z,25.14
2023-02-20T08:36:01.149Z,25.12
2023-02-20T08:37:01.194Z,25.16
2023-02-20T08:38:03.453Z,25.19
2023-02-20T08:39:01.183Z,25.19
2023-02-20T08:40:01.179Z,25.22
2023-02-20T08:41:01.574Z,25.25
2023-02-20T08:42:01.241Z,25.25
2023-02-20T08:43:01.055Z,25.26
2023-02-20T08:44:00.998Z,25.22
2023-02-20T08:45:00.981Z,25.16
2023-02-20T08:46:01.105Z,25.12
2023-02-20T08:47:01.000Z,25.05
2023-02-20T08:48:01.022Z,24.96
2023-02-20T08:49:02.123Z,24.87
2023-02-20T08:50:03.027Z,24.77
2023-02-20T08:51:01.031Z,24.68
2023-02-20T08:52:01.012Z,24.60
2023-02-20T08:53:00.981Z,24.49
2023-02-20T08:54:01.005Z,24.39
2023-02-20T08:55:01.012Z,24.24
2023-02-20T08:56:01.034Z,24.16
2023-02-20T08:57:00.938Z,24.02
2023-02-20T08:58:00.967Z,23.95
2023-02-20T08:59:01.039Z,23.92
2023-02-20T09:00:01.059Z,23.89
2023-02-20T09:01:01.111Z,23.86
2023-02-20T09:02:01.151Z,23.88
2023-02-20T09:03:01.317Z,23.91
2023-02-20T09:04:01.219Z,23.92
2023-02-20T09:05:01.271Z,23.95
2023-02-20T09:06:01.324Z,23.98
2023-02-20T09:07:01.325Z,24.03
2023-02-20T09:08:01.367Z,24.08
2023-02-20T09:09:01.440Z,24.08
2023-02-20T09:10:01.453Z,24.15
2023-02-20T09:11:01.444Z,24.17
2023-02-20T09:12:01.476Z,24.23
2023-02-20T09:13:01.460Z,24.26
2023-02-20T09:14:01.416Z,24.30
2023-02-20T09:15:01.379Z,24.34
2023-02-20T09:16:01.518Z,24.37
2023-02-20T09:17:02.019Z,24.40
2023-02-20T09:18:02.069Z,24.43
2023-02-20T09:19:01.421Z,24.46
2023-02-20T09:20:01.272Z,24.50
2023-02-20T09:21:01.264Z,24.51
2023-02-20T09:22:01.208Z,24.56
2023-02-20T09:23:01.207Z,24.56
2023-02-20T09:24:01.148Z,24.59
2023-02-20T09:25:01.206Z,24.60
2023-02-20T09:26:01.085Z,24.61
2023-02-20T09:27:01.112Z,24.67
2023-02-20T09:28:01.019Z,24.66
2023-02-20T09:29:00.996Z,24.67
2023-02-20T09:30:02.067Z,24.68
2023-02-20T09:31:00.955Z,24.70
2023-02-20T09:32:01.003Z,24.70
2023-02-20T09:33:00.892Z,24.72
2023-02-20T09:34:00.881Z,24.74
2023-02-20T09:35:00.839Z,24.74
2023-02-20T09:36:00.881Z,24.75
2023-02-20T09:37:00.810Z,24.72
2023-02-20T09:38:00.798Z,24.72
2023-02-20T09:39:00.761Z,24.70
2023-02-20T09:40:00.794Z,24.71
2023-02-20T09:41:00.763Z,24.67
2023-02-20T09:42:00.715Z,24.63
2023-02-20T09:43:00.679Z,24.63
2023-02-20T09:44:00.707Z,24.61
2023-02-20T09:45:00.660Z,24.60
2023-02-20T09:46:00.633Z,24.59
2023-02-20T09:47:01.078Z,24.54
2023-02-20T09:48:00.573Z,24.49
2023-02-20T09:49:00.584Z,24.46
2023-02-20T09:50:00.626Z,24.46
2023-02-20T09:51:00.504Z,24.47
2023-02-20T09:52:00.503Z,24.49
2023-02-20T09:53:00.489Z,24.47
2023-02-20T09:54:00.496Z,24.51
2023-02-20T09:55:00.557Z,24.53
2023-02-20T09:56:00.426Z,24.53
2023-02-20T09:57:00.388Z,24.57
2023-02-20T09:58:00.343Z,24.57
2023-02-20T09:59:00.363Z,24.60
2023-02-20T10:00:03.647Z,24.61
2023-02-20T10:01:01.248Z,24.64
2023-02-20T10:02:00.352Z,24.63
2023-02-20T10:03:00.436Z,24.66
2023-02-20T10:04:00.198Z,24.64
2023-02-20T10:05:01.830Z,24.67
2023-02-20T10:06:00.146Z,24.68
2023-02-20T10:07:00.166Z,24.70
2023-02-20T10:08:00.165Z,24.68
2023-02-20T10:09:00.109Z,24.72
2023-02-20T10:10:00.082Z,24.71
2023-02-20T10:11:00.068Z,24.72
2023-02-20T10:11:59.994Z,24.75
2023-02-20T10:13:00.036Z,24.74
2023-02-20T10:13:59.981Z,24.72
2023-02-20T10:14:59.909Z,24.77
2023-02-20T10:15:59.981Z,24.77
2023-02-20T10:17:00.547Z,24.77
2023-02-20T10:17:59.856Z,24.74
2023-02-20T10:18:59.866Z,24.77
2023-02-20T10:20:00.049Z,24.78
2023-02-20T10:20:59.822Z,24.77
2023-02-20T10:22:04.585Z,24.78
2023-02-20T10:22:59.757Z,24.78
2023-02-20T10:24:05.490Z,24.78
2023-02-20T10:25:00.813Z,24.81
2023-02-20T10:25:59.699Z,24.79
2023-02-20T10:26:59.674Z,24.81
2023-02-20T10:27:59.635Z,24.81
2023-02-20T10:29:01.671Z,24.79
2023-02-20T10:29:59.922Z,24.84
2023-02-20T10:30:59.584Z,24.82
2023-02-20T10:31:59.719Z,24.84
2023-02-20T11:29:49.857Z,25.15
2023-02-20T13:59:44.418Z,26.38
2023-02-20T14:00:43.518Z,26.39
2023-02-20T14:01:43.489Z,26.39
2023-02-20T14:02:43.444Z,26.39
2023-02-20T14:03:43.496Z,26.42
2023-02-20T14:04:43.368Z,26.42
2023-02-20T14:05:43.355Z,26.43
2023-02-20T14:06:56.521Z,26.46
2023-02-20T14:08:43.271Z,26.47
2023-02-20T14:09:43.278Z,26.49
2023-02-20T14:10:43.216Z,26.47
2023-02-20T14:11:43.264Z,26.47
2023-02-20T14:12:43.516Z,26.52
2023-02-20T14:13:43.173Z,26.55
2023-02-20T14:14:43.184Z,26.57
2023-02-20T14:15:43.117Z,26.57
2023-02-20T14:16:43.099Z,26.59
2023-02-20T14:17:43.030Z,26.57
2023-02-20T14:18:43.050Z,26.59
2023-02-20T14:19:42.990Z,26.59
2023-02-20T14:20:43.003Z,26.60
2023-02-20T14:21:42.959Z,26.62
2023-02-20T14:22:42.966Z,26.67
2023-02-20T14:23:42.892Z,26.69
2023-02-20T14:24:42.896Z,26.67
2023-02-20T14:25:59.610Z,26.70
2023-02-20T14:26:43.801Z,26.73
2023-02-20T14:27:42.783Z,26.73
2023-02-20T14:28:42.737Z,26.72
2023-02-20T14:29:42.759Z,26.72
2023-02-20T14:30:42.702Z,26.76
2023-02-20T14:31:42.722Z,26.77
2023-02-20T14:32:42.692Z,26.76
2023-02-20T14:33:42.630Z,26.77
2023-02-20T14:34:42.574Z,26.79
2023-02-20T14:35:42.576Z,26.76
2023-02-20T14:36:42.507Z,26.77
2023-02-20T14:37:42.489Z,26.77
2023-02-20T14:38:42.461Z,26.79
2023-02-20T14:39:42.467Z,26.79
2023-02-20T14:40:42.405Z,26.80
2023-02-20T14:41:42.364Z,26.79
2023-02-20T14:42:42.333Z,26.81
2023-02-20T14:43:42.281Z,26.83
2023-02-20T14:44:42.273Z,26.83
2023-02-20T14:45:42.284Z,26.83
2023-02-20T14:46:42.212Z,26.84
2023-02-20T14:47:42.150Z,26.89
2023-02-20T14:48:42.151Z,26.90
2023-02-20T14:49:42.083Z,26.91
2023-02-20T14:50:42.074Z,26.94
2023-02-20T14:51:42.029Z,26.95
2023-02-20T14:52:42.433Z,26.97
2023-02-20T14:53:41.930Z,26.95
2023-02-20T14:54:41.945Z,26.97
2023-02-20T14:55:42.453Z,26.95
2023-02-20T14:56:41.950Z,26.97
2023-02-20T14:57:41.898Z,26.94
2023-02-20T14:58:41.858Z,26.94
2023-02-20T14:59:41.876Z,26.90
2023-02-20T15:00:41.813Z,26.91
2023-02-20T15:01:41.773Z,26.87
2023-02-20T15:02:41.758Z,26.91
2023-02-20T15:03:41.776Z,26.89
2023-02-20T15:04:41.792Z,26.90
2023-02-20T15:05:41.758Z,26.90
2023-02-20T15:06:41.803Z,26.87
2023-02-20T15:07:41.880Z,26.87
2023-02-20T15:08:41.872Z,26.86
2023-02-20T15:09:41.898Z,26.84
2023-02-20T15:10:41.969Z,26.86
2023-02-20T15:11:41.939Z,26.83
2023-02-20T15:12:42.148Z,26.83
2023-02-20T15:13:42.004Z,26.83
2023-02-20T15:14:42.017Z,26.80
2023-02-20T15:15:42.932Z,26.81
2023-02-20T15:16:42.041Z,26.81
2023-02-20T15:17:41.974Z,26.81
2023-02-20T15:18:41.993Z,26.80
2023-02-20T15:19:44.447Z,26.81
2023-02-20T15:20:42.088Z,26.79
2023-02-20T15:21:42.006Z,26.81
2023-02-20T15:22:41.962Z,26.79
2023-02-20T15:23:41.923Z,26.80
2023-02-20T15:24:41.886Z,26.77
2023-02-20T15:25:41.912Z,26.79
2023-02-20T15:26:41.838Z,26.77
2023-02-20T15:27:41.858Z,26.79
2023-02-20T15:28:41.889Z,26.79
2023-02-20T15:29:41.899Z,26.76
2023-02-20T15:30:42.094Z,26.76
2023-02-20T15:31:42.113Z,26.76
2023-02-20T15:32:41.974Z,26.76
2023-02-20T15:33:42.020Z,26.76
2023-02-20T15:34:42.105Z,26.74
2023-02-20T15:35:42.093Z,26.76
2023-02-20T15:36:42.097Z,26.77
2023-02-20T15:37:49.211Z,26.74
2023-02-20T15:38:43.121Z,26.74
2023-02-20T15:39:42.062Z,26.76
2023-02-20T15:40:42.164Z,26.74
2023-02-20T15:41:42.929Z,26.74
2023-02-20T15:42:41.993Z,26.73
2023-02-20T15:43:51.511Z,26.73
2023-02-20T15:44:42.917Z,26.73
2023-02-20T15:45:41.858Z,26.72
2023-02-20T15:46:41.862Z,26.73
2023-02-20T15:47:41.805Z,26.72
2023-02-20T15:48:41.774Z,26.72
2023-02-20T15:49:41.731Z,26.72
2023-02-20T15:50:41.703Z,26.70
2023-02-20T15:51:41.663Z,26.70
2023-02-20T15:52:41.631Z,26.72
2023-02-20T15:53:41.607Z,26.72
2023-02-20T15:54:41.582Z,26.72
2023-02-20T15:55:41.518Z,26.69
2023-02-20T15:56:41.544Z,26.70
2023-02-20T15:57:41.433Z,26.70
2023-02-20T15:58:41.405Z,26.70
2023-02-20T15:59:41.378Z,26.69
2023-02-20T16:00:41.336Z,26.69
2023-02-20T16:01:41.350Z,26.69
2023-02-20T16:02:41.323Z,26.70
2023-02-20T16:03:51.744Z,26.69
2023-02-20T16:04:42.233Z,26.67
2023-02-20T16:05:41.182Z,26.67
2023-02-20T16:06:41.158Z,26.69
2023-02-20T16:07:41.198Z,26.67
2023-02-20T16:08:41.081Z,26.66
2023-02-20T16:09:41.036Z,26.66
2023-02-20T16:10:41.020Z,26.66
2023-02-20T16:11:40.972Z,26.64
2023-02-20T16:12:40.988Z,26.67
2023-02-20T16:13:40.911Z,26.64
2023-02-20T16:14:40.866Z,26.64
2023-02-20T16:15:40.845Z,26.66
2023-02-20T16:16:40.874Z,26.63
2023-02-20T16:17:40.791Z,26.63
2023-02-20T16:18:40.733Z,26.63
2023-02-20T16:19:42.916Z,26.63
2023-02-20T16:20:40.717Z,26.60
2023-02-20T16:21:44.924Z,26.60
2023-02-20T16:22:41.627Z,26.62
2023-02-20T16:23:40.570Z,26.62
2023-02-20T16:24:40.563Z,26.60
2023-02-20T16:25:40.528Z,26.64
2023-02-20T16:26:40.477Z,26.60
2023-02-20T16:27:40.460Z,26.57
2023-02-20T16:28:40.391Z,26.59
2023-02-20T16:29:40.946Z,26.57
2023-02-20T16:30:40.415Z,26.56
2023-02-20T16:31:40.411Z,26.57
2023-02-20T16:32:40.272Z,26.56
2023-02-20T16:33:40.218Z,26.59
2023-02-20T16:34:40.239Z,26.59
2023-02-20T16:35:40.166Z,26.55
2023-02-20T16:36:40.118Z,26.56
2023-02-20T16:37:40.088Z,26.56
2023-02-20T16:38:40.099Z,26.55
2023-02-20T16:39:40.050Z,26.56
2023-02-20T16:40:39.994Z,26.56
2023-02-20T16:41:40.040Z,26.56
2023-02-20T16:42:40.458Z,26.57
2023-02-20T16:43:39.886Z,26.55
2023-02-20T16:44:39.853Z,26.55
2023-02-20T16:45:39.824Z,26.56
2023-02-20T16:46:39.941Z,26.53
2023-02-20T16:47:39.809Z,26.55
2023-02-20T16:48:39.752Z,26.53
2023-02-20T16:49:39.687Z,26.53
2023-02-20T16:50:39.702Z,26.55
2023-02-20T16:51:39.627Z,26.52
2023-02-20T16:52:39.621Z,26.53
2023-02-20T16:53:39.559Z,26.52
2023-02-20T16:54:39.538Z,26.52
2023-02-20T16:55:39.489Z,26.55
2023-02-20T16:56:39.451Z,26.52
2023-02-20T16:57:39.422Z,26.52
2023-02-20T16:58:39.394Z,26.52
2023-02-20T16:59:39.375Z,26.52
2023-02-20T17:00:50.901Z,26.50
2023-02-20T17:01:40.335Z,26.50
2023-02-20T18:36:36.085Z,26.34
2023-02-20T18:37:36.048Z,26.36
2023-02-20T18:38:35.990Z,26.35
2023-02-20T18:39:35.967Z,26.36
2023-02-20T18:40:35.930Z,26.34
2023-02-20T18:41:35.890Z,26.35
2023-02-20T18:42:35.867Z,26.34
2023-02-20T18:43:35.835Z,26.35
2023-02-20T18:44:35.803Z,26.34
2023-02-20T18:45:35.795Z,26.32
2023-02-20T18:46:35.763Z,26.34
2023-02-20T18:47:35.707Z,26.34
2023-02-20T18:48:35.651Z,26.34
2023-02-20T18:49:35.621Z,26.34
2023-02-20T18:50:35.594Z,26.34
2023-02-20T18:51:35.554Z,26.34
2023-02-20T18:52:35.513Z,26.32
2023-02-20T18:53:35.488Z,26.34
2023-02-20T18:54:35.483Z,26.34
2023-02-20T18:55:35.429Z,26.32
2023-02-20T18:56:35.398Z,26.34
2023-02-20T18:57:35.395Z,26.34
2023-02-20T18:58:35.330Z,26.32
2023-02-20T18:59:35.293Z,26.32
2023-02-20T19:00:35.258Z,26.32
2023-02-20T19:01:35.389Z,26.31
2023-02-20T19:02:35.242Z,26.32
2023-02-20T19:03:35.238Z,26.32
2023-02-20T19:05:35.129Z,26.32
2023-02-20T19:06:35.136Z,26.29
2023-02-20T19:07:35.065Z,26.32
2023-02-20T19:08:35.051Z,26.29
2023-02-20T19:09:35.002Z,26.31
2023-02-20T19:10:34.987Z,26.31
2023-02-20T19:11:34.937Z,26.29
2023-02-20T19:12:34.896Z,26.31
2023-02-20T19:13:34.874Z,26.31
2023-02-20T19:14:34.833Z,26.32
2023-02-20T19:15:34.806Z,26.29
2023-02-20T19:16:34.774Z,26.28
2023-02-20T19:17:34.820Z,26.34
2023-02-20T19:18:37.621Z,26.31
2023-02-20T19:19:35.656Z,26.29
2023-02-20T19:20:34.637Z,26.28
2023-02-20T19:21:34.604Z,26.29
2023-02-20T19:22:34.582Z,26.29
2023-02-20T19:23:35.034Z,26.28
2023-02-20T19:24:34.503Z,26.29
2023-02-20T19:25:34.521Z,26.29
2023-02-20T19:26:34.439Z,26.29
2023-02-20T19:27:34.409Z,26.29
2023-02-20T19:28:34.384Z,26.29
2023-02-20T19:29:34.354Z,26.29
2023-02-20T19:30:34.373Z,26.29
2023-02-20T19:31:34.356Z,26.28
2023-02-20T19:32:34.339Z,26.31
2023-02-20T19:33:34.222Z,26.29
2023-02-20T19:34:34.181Z,26.29
2023-02-20T19:35:34.186Z,26.28
2023-02-20T19:36:34.129Z,26.29
2023-02-20T19:37:34.065Z,26.29
2023-02-20T19:38:34.096Z,26.26
2023-02-20T19:39:34.037Z,26.26
2023-02-20T19:40:33.963Z,26.26
2023-02-20T20:46:31.805Z,26.25
2023-02-20T20:47:31.758Z,26.25
2023-02-20T20:48:31.738Z,26.24
2023-02-20T20:49:31.739Z,26.25
2023-02-20T20:50:31.675Z,26.25
2023-02-20T20:51:31.653Z,26.22
2023-02-20T20:52:32.581Z,26.24
2023-02-20T20:53:31.585Z,26.24
2023-02-20T20:54:31.562Z,26.25
2023-02-20T20:55:31.579Z,26.24
2023-02-20T20:56:31.517Z,26.25
2023-02-20T20:57:31.502Z,26.24
2023-02-20T20:58:31.468Z,26.25
2023-02-20T20:59:31.415Z,26.25
2023-02-20T21:00:31.398Z,26.24
2023-02-20T21:01:31.413Z,26.25
2023-02-20T21:02:31.321Z,26.25
2023-02-20T21:03:31.312Z,26.24
2023-02-20T21:04:31.276Z,26.24
2023-02-20T21:05:31.273Z,26.22
2023-02-20T21:06:31.210Z,26.25
2023-02-20T21:07:31.176Z,26.25
2023-02-20T21:08:31.145Z,26.22
2023-02-20T21:09:31.131Z,26.24
2023-02-20T21:10:31.089Z,26.24
2023-02-20T21:11:31.888Z,26.22
2023-02-20T21:12:31.017Z,26.25
2023-02-20T21:13:31.017Z,26.24
2023-02-20T21:14:31.332Z,26.22
2023-02-20T21:15:30.961Z,26.24
2023-02-20T21:16:30.903Z,26.22
2023-02-20T21:17:30.878Z,26.25
2023-02-20T21:18:30.831Z,26.24
2023-02-20T21:19:30.800Z,26.22
2023-02-20T21:20:30.766Z,26.22
2023-02-20T21:21:30.721Z,26.22
2023-02-20T21:22:30.696Z,26.25
2023-02-20T21:23:30.658Z,26.24
2023-02-20T21:24:30.632Z,26.22
2023-02-20T21:25:30.617Z,26.24
2023-02-20T21:26:30.641Z,26.22
2023-02-20T21:27:30.649Z,26.19
2023-02-20T21:28:30.694Z,26.21
2023-02-20T21:29:30.709Z,26.24
2023-02-20T21:30:30.835Z,26.22
2023-02-20T21:31:30.839Z,26.21
2023-02-20T21:32:30.792Z,26.22
2023-02-20T21:33:30.790Z,26.22
2023-02-20T21:34:30.841Z,26.24
2023-02-20T21:35:30.886Z,26.21
2023-02-20T21:36:30.883Z,26.22
2023-02-20T21:37:30.981Z,26.22
2023-02-20T21:38:30.954Z,26.22
2023-02-20T21:39:30.965Z,26.22
2023-02-20T21:40:31.035Z,26.22
2023-02-20T21:41:31.037Z,26.21
2023-02-20T21:42:31.072Z,26.24
2023-02-20T21:43:31.063Z,26.22
2023-02-20T21:44:31.095Z,26.21
2023-02-20T21:45:31.149Z,26.22
2023-02-20T21:46:31.232Z,26.25
2023-02-20T21:47:31.181Z,26.21
2023-02-20T21:48:31.230Z,26.19
2023-02-20T21:49:31.236Z,26.21
2023-02-20T21:50:31.251Z,26.21
2023-02-20T21:51:31.258Z,26.22
2023-02-20T21:52:31.283Z,26.24
2023-02-20T21:53:31.322Z,26.22
2023-02-20T21:54:31.374Z,26.22